Terminal Aerodrome Forecast
Issued by NWS Omaha/Valley, NE

Home | Current Version | Previous Version | Text Only | Print | Product List | Glossary On
Versions: 1 2 3 4 5 6 7 8 9 10 11 12 13 14 15 16 17 18 19 20 21 22 23 24 25 26 27 28 29 30
000
FTUS43 KOAX 222320
TAFLNK
TAF
KLNK 222320Z 2300/2324 18008KT P6SM BKN200
     FM230400 17006KT P6SM BKN100
     FM231000 18006KT P6SM OVC060 PROB30 2312/2316 -SHRA OVC040
     FM231600 16015G22KT P6SM SCT015 OVC040 PROB30 2316/2322 4SM
      -SHRA OVC025=

USA.gov is the U.S. government's official web portal to all federal, state and local government web resources and services.